Time;durP1;ratioP1;P1;durP2;ratioP2;P2;SDS_P1;SDS_P2;PMS_P1;PMS_P2;Temp;Humidity;BMP_temperature;BMP_pressure;BME280_temperature;BME280_humidity;BME280_pressure;Samples;Min_cycle;Max_cycle;Signal;HPM_P1;HPM_P2
2022/07/12 00:00:42;;;;;;;3.22;0.65;;;;;;;;;;5050965;28;20269;-16
2022/07/12 00:03:10;;;;;;;2.22;0.50;;;;;;;;;;5050948;28;20233;-17
2022/07/12 00:05:39;;;;;;;1.95;0.70;;;;;;;;;;5050965;28;20288;-17
2022/07/12 00:08:06;;;;;;;0.70;0.47;;;;;;;;;;5046653;28;20229;-17
2022/07/12 00:10:34;;;;;;;1.02;0.60;;;;;;;;;;5051106;28;21023;-17
2022/07/12 00:13:01;;;;;;;2.58;0.68;;;;;;;;;;5050499;28;20987;-17
2022/07/12 00:15:29;;;;;;;0.98;0.40;;;;;;;;;;5051062;28;20229;-16
2022/07/12 00:17:56;;;;;;;2.97;0.45;;;;;;;;;;5051191;28;20265;-17
2022/07/12 00:20:24;;;;;;;1.60;0.50;;;;;;;;;;5050234;28;20234;-17
2022/07/12 00:22:53;;;;;;;0.80;0.50;;;;;;;;;;5050427;28;20241;-17
2022/07/12 00:25:21;;;;;;;0.93;0.40;;;;;;;;;;5050623;28;20779;-16
2022/07/12 00:27:48;;;;;;;0.82;0.50;;;;;;;;;;5050690;28;20233;-17
2022/07/12 00:30:15;;;;;;;1.00;0.55;;;;;;;;;;5050015;28;20236;-17
2022/07/12 00:32:43;;;;;;;1.50;0.55;;;;;;;;;;5050245;28;20740;-16
2022/07/12 00:35:10;;;;;;;0.50;0.50;;;;;;;;;;5050532;28;20258;-17
2022/07/12 00:37:38;;;;;;;0.73;0.50;;;;;;;;;;5050733;28;20329;-17
2022/07/12 00:40:08;;;;;;;3.40;0.50;;;;;;;;;;5050794;28;20232;-17
2022/07/12 00:42:36;;;;;;;2.60;0.60;;;;;;;;;;5042579;28;20280;-17
2022/07/12 00:45:03;;;;;;;0.88;0.60;;;;;;;;;;5038401;28;20237;-17
2022/07/12 00:47:33;;;;;;;0.43;0.40;;;;;;;;;;5049629;28;20337;-17
2022/07/12 00:50:00;;;;;;;1.35;0.60;;;;;;;;;;5050701;28;20280;-17
2022/07/12 00:52:28;;;;;;;3.35;0.55;;;;;;;;;;5050250;28;20277;-17
2022/07/12 00:54:55;;;;;;;0.85;0.50;;;;;;;;;;5052264;28;20232;-16
2022/07/12 00:57:24;;;;;;;0.70;0.50;;;;;;;;;;5053328;28;20240;-17
2022/07/12 00:59:51;;;;;;;1.77;0.40;;;;;;;;;;5053827;28;20230;-17
2022/07/12 01:02:19;;;;;;;0.32;0.30;;;;;;;;;;5054098;28;20312;-16
2022/07/12 01:04:46;;;;;;;1.13;0.60;;;;;;;;;;5053354;28;20233;-17
2022/07/12 01:07:14;;;;;;;0.60;0.40;;;;;;;;;;5054158;28;20241;-17
2022/07/12 01:09:42;;;;;;;0.77;0.50;;;;;;;;;;5054062;28;20222;-16
2022/07/12 01:12:09;;;;;;;1.42;0.63;;;;;;;;;;5051999;28;20234;-17
2022/07/12 01:14:39;;;;;;;0.93;0.50;;;;;;;;;;5052653;28;20230;-17
2022/07/12 01:17:07;;;;;;;0.50;0.50;;;;;;;;;;5053645;28;20234;-17
2022/07/12 01:19:34;;;;;;;0.73;0.50;;;;;;;;;;5049494;28;20234;-17
2022/07/12 01:22:02;;;;;;;0.73;0.50;;;;;;;;;;5050602;28;20253;-17
2022/07/12 01:24:30;;;;;;;0.70;0.50;;;;;;;;;;5052495;28;20241;-16
2022/07/12 01:26:58;;;;;;;2.40;0.50;;;;;;;;;;5053484;28;20237;-16
2022/07/12 01:29:26;;;;;;;2.35;0.50;;;;;;;;;;5053738;28;20292;-17
2022/07/12 01:31:53;;;;;;;0.82;0.30;;;;;;;;;;5053285;28;20325;-17
2022/07/12 01:34:21;;;;;;;2.35;0.50;;;;;;;;;;5053051;28;20236;-17
2022/07/12 01:36:48;;;;;;;0.70;0.50;;;;;;;;;;5053889;28;20317;-17
2022/07/12 01:39:15;;;;;;;1.52;0.40;;;;;;;;;;5053496;28;20234;-16
2022/07/12 01:41:44;;;;;;;1.60;0.57;;;;;;;;;;5053528;28;20222;-17
2022/07/12 01:44:12;;;;;;;0.93;0.40;;;;;;;;;;5053561;28;20245;-17
2022/07/12 01:46:39;;;;;;;0.85;0.40;;;;;;;;;;5051774;28;20238;-17
2022/07/12 01:49:07;;;;;;;0.40;0.35;;;;;;;;;;5053032;28;20697;-16
2022/07/12 01:51:34;;;;;;;0.85;0.50;;;;;;;;;;5053401;28;20238;-17
2022/07/12 01:54:02;;;;;;;0.95;0.40;;;;;;;;;;5053122;28;20230;-17
2022/07/12 01:56:29;;;;;;;0.60;0.40;;;;;;;;;;5052301;28;20226;-17
2022/07/12 01:58:58;;;;;;;0.98;0.40;;;;;;;;;;5053586;28;20337;-17
2022/07/12 02:01:25;;;;;;;2.05;0.68;;;;;;;;;;5053062;28;20231;-17
2022/07/12 02:03:53;;;;;;;0.65;0.50;;;;;;;;;;5053221;28;20713;-16
2022/07/12 02:06:20;;;;;;;1.20;0.50;;;;;;;;;;5051932;28;20229;-17
2022/07/12 02:08:47;;;;;;;0.50;0.40;;;;;;;;;;5052377;28;20827;-17
2022/07/12 02:11:15;;;;;;;2.08;0.50;;;;;;;;;;5052580;28;20234;-17
2022/07/12 02:13:43;;;;;;;0.68;0.55;;;;;;;;;;5053102;28;20234;-17
2022/07/12 02:16:11;;;;;;;0.68;0.40;;;;;;;;;;5052764;28;20242;-17
2022/07/12 02:18:39;;;;;;;1.17;0.50;;;;;;;;;;5052297;28;20285;-17
2022/07/12 02:21:06;;;;;;;0.68;0.50;;;;;;;;;;5066211;22;20222;-17
2022/07/12 02:23:34;;;;;;;1.58;0.47;;;;;;;;;;5053392;28;20234;-17
2022/07/12 02:26:01;;;;;;;0.82;0.60;;;;;;;;;;5052487;28;20226;-17
2022/07/12 02:28:29;;;;;;;1.15;0.57;;;;;;;;;;5051309;28;20241;-17
2022/07/12 02:30:56;;;;;;;0.85;0.55;;;;;;;;;;5052061;28;20364;-17
2022/07/12 02:33:25;;;;;;;0.73;0.50;;;;;;;;;;5052220;28;20234;-17
2022/07/12 02:35:53;;;;;;;0.50;0.43;;;;;;;;;;5051576;28;20226;-17
2022/07/12 02:38:21;;;;;;;0.45;0.40;;;;;;;;;;5052272;28;21588;-17
2022/07/12 02:40:54;;;;;;;0.43;0.40;;;;;;;;;;5059387;28;20234;-17
2022/07/12 02:43:22;;;;;;;1.05;0.65;;;;;;;;;;5050752;28;20325;-17
2022/07/12 02:45:49;;;;;;;0.50;0.40;;;;;;;;;;5051334;28;20230;-17
2022/07/12 02:48:16;;;;;;;0.73;0.35;;;;;;;;;;5051492;28;20300;-17
2022/07/12 02:50:45;;;;;;;0.60;0.50;;;;;;;;;;5051540;28;20245;-17
2022/07/12 02:53:12;;;;;;;0.98;0.50;;;;;;;;;;5052234;28;20230;-17
2022/07/12 02:55:40;;;;;;;0.75;0.43;;;;;;;;;;5038240;28;20233;-17
2022/07/12 02:58:07;;;;;;;0.50;0.50;;;;;;;;;;5051915;28;20241;-17
2022/07/12 03:00:35;;;;;;;1.60;0.43;;;;;;;;;;5050975;28;20237;-17
2022/07/12 03:03:02;;;;;;;1.42;0.50;;;;;;;;;;5051368;28;20230;-17
2022/07/12 03:05:30;;;;;;;3.45;0.60;;;;;;;;;;5052047;28;20701;-17
2022/07/12 03:07:58;;;;;;;0.98;0.40;;;;;;;;;;5051232;28;20240;-17
2022/07/12 03:10:26;;;;;;;1.00;0.40;;;;;;;;;;5046115;28;20235;-17
2022/07/12 03:12:53;;;;;;;0.57;0.50;;;;;;;;;;5050922;28;21116;-17
2022/07/12 03:15:22;;;;;;;1.52;0.50;;;;;;;;;;5051496;28;20226;-17
2022/07/12 03:17:49;;;;;;;1.92;0.60;;;;;;;;;;5050847;28;20244;-17
2022/07/12 03:20:16;;;;;;;1.02;0.40;;;;;;;;;;5051697;28;20230;-17
2022/07/12 03:22:46;;;;;;;0.70;0.40;;;;;;;;;;5050938;28;20733;-17
2022/07/12 03:25:15;;;;;;;0.98;0.45;;;;;;;;;;5050707;28;20234;-17
2022/07/12 03:27:42;;;;;;;0.50;0.40;;;;;;;;;;5051168;28;20234;-17
2022/07/12 03:30:11;;;;;;;0.30;0.30;;;;;;;;;;5050842;28;20234;-17
2022/07/12 03:32:38;;;;;;;2.15;0.60;;;;;;;;;;5049356;28;21013;-17
2022/07/12 03:35:06;;;;;;;0.98;0.45;;;;;;;;;;5038976;28;20614;-17
2022/07/12 03:37:40;;;;;;;0.63;0.40;;;;;;;;;;5037331;28;20238;-17
2022/07/12 03:40:08;;;;;;;0.95;0.47;;;;;;;;;;5051365;28;20229;-17
2022/07/12 03:42:37;;;;;;;0.50;0.50;;;;;;;;;;5051182;28;20226;-17
2022/07/12 03:45:05;;;;;;;0.82;0.43;;;;;;;;;;5051403;28;20345;-17
2022/07/12 03:47:32;;;;;;;1.65;0.50;;;;;;;;;;5051612;28;20709;-17
2022/07/12 03:49:59;;;;;;;0.40;0.40;;;;;;;;;;5050928;28;20654;-17
2022/07/12 03:52:27;;;;;;;3.03;0.60;;;;;;;;;;5051191;28;20236;-17
2022/07/12 03:54:54;;;;;;;0.70;0.50;;;;;;;;;;5051053;28;20227;-17
2022/07/12 03:57:22;;;;;;;0.47;0.43;;;;;;;;;;5050511;28;20237;-17
2022/07/12 03:59:50;;;;;;;3.30;0.45;;;;;;;;;;5050564;28;20230;-17
2022/07/12 04:02:18;;;;;;;1.25;0.50;;;;;;;;;;5049917;28;20230;-17
2022/07/12 04:04:45;;;;;;;0.77;0.40;;;;;;;;;;5037975;28;20277;-17
2022/07/12 04:07:13;;;;;;;0.60;0.50;;;;;;;;;;5036059;28;20732;-17
2022/07/12 04:09:40;;;;;;;0.70;0.50;;;;;;;;;;5051062;28;20238;-17
2022/07/12 04:12:08;;;;;;;0.98;0.50;;;;;;;;;;5050867;28;21177;-17
2022/07/12 04:14:35;;;;;;;2.67;0.50;;;;;;;;;;5049742;28;20844;-17
2022/07/12 04:17:05;;;;;;;3.55;0.60;;;;;;;;;;5050704;28;21070;-17
2022/07/12 04:19:32;;;;;;;0.30;0.30;;;;;;;;;;5050287;28;20234;-17
2022/07/12 04:21:59;;;;;;;0.75;0.50;;;;;;;;;;5050645;28;20233;-17
2022/07/12 04:24:27;;;;;;;2.83;0.40;;;;;;;;;;5050900;28;20909;-17
2022/07/12 04:26:54;;;;;;;0.82;0.45;;;;;;;;;;5050943;28;20234;-17
2022/07/12 04:29:22;;;;;;;2.72;0.40;;;;;;;;;;5049878;28;20234;-17
2022/07/12 04:31:49;;;;;;;0.80;0.40;;;;;;;;;;5051136;28;20241;-17
2022/07/12 04:34:18;;;;;;;2.38;0.60;;;;;;;;;;5046591;28;20773;-17
2022/07/12 04:36:45;;;;;;;2.25;0.52;;;;;;;;;;5038419;28;21100;-17
2022/07/12 04:39:13;;;;;;;0.60;0.43;;;;;;;;;;5048376;28;20252;-17
2022/07/12 04:41:40;;;;;;;0.75;0.60;;;;;;;;;;5050203;28;20653;-17
2022/07/12 04:44:08;;;;;;;0.60;0.40;;;;;;;;;;5036598;28;20245;-17
2022/07/12 04:46:35;;;;;;;1.23;0.47;;;;;;;;;;5050701;28;20234;-17
2022/07/12 04:49:03;;;;;;;0.70;0.40;;;;;;;;;;5036743;28;20288;-17
2022/07/12 04:51:31;;;;;;;0.80;0.50;;;;;;;;;;5049805;28;20245;-17
2022/07/12 04:53:59;;;;;;;1.17;0.50;;;;;;;;;;5050111;28;20222;-17
2022/07/12 04:56:26;;;;;;;2.22;0.50;;;;;;;;;;5050292;28;20230;-17
2022/07/12 04:58:53;;;;;;;2.47;0.70;;;;;;;;;;5049999;28;20711;-17
2022/07/12 05:01:27;;;;;;;1.30;0.60;;;;;;;;;;5049775;28;20233;-17
2022/07/12 05:03:54;;;;;;;5.20;0.80;;;;;;;;;;5044125;28;20261;-17
2022/07/12 05:06:22;;;;;;;3.78;0.55;;;;;;;;;;5049962;28;20234;-17
2022/07/12 05:08:51;;;;;;;2.30;0.30;;;;;;;;;;5049751;28;20321;-17
2022/07/12 05:11:19;;;;;;;3.65;0.90;;;;;;;;;;5050169;28;20712;-17
2022/07/12 05:13:46;;;;;;;0.75;0.50;;;;;;;;;;5049722;28;20230;-17
2022/07/12 05:16:14;;;;;;;1.25;0.43;;;;;;;;;;5050067;28;20234;-17
2022/07/12 05:18:41;;;;;;;0.85;0.50;;;;;;;;;;5049767;28;20236;-17
2022/07/12 05:21:09;;;;;;;1.90;0.63;;;;;;;;;;5049563;28;20226;-18
2022/07/12 05:23:36;;;;;;;1.63;0.50;;;;;;;;;;5049869;28;20234;-17
2022/07/12 05:26:05;;;;;;;3.92;0.70;;;;;;;;;;5049457;28;20239;-17
2022/07/12 05:28:33;;;;;;;5.50;0.70;;;;;;;;;;5049441;28;20735;-16
2022/07/12 05:31:00;;;;;;;6.88;0.88;;;;;;;;;;5049649;28;20329;-17
2022/07/12 05:33:28;;;;;;;6.43;0.90;;;;;;;;;;5050070;28;20345;-17
2022/07/12 05:35:56;;;;;;;3.72;0.90;;;;;;;;;;5049259;28;20245;-17
2022/07/12 05:38:23;;;;;;;8.65;1.08;;;;;;;;;;5049832;28;20230;-17
2022/07/12 05:40:51;;;;;;;4.97;1.05;;;;;;;;;;5051374;28;20226;-17
2022/07/12 05:43:20;;;;;;;8.57;1.23;;;;;;;;;;5053145;28;20244;-16
2022/07/12 05:45:47;;;;;;;3.03;1.08;;;;;;;;;;5052764;28;20229;-17
2022/07/12 05:48:15;;;;;;;4.35;0.80;;;;;;;;;;5049233;28;20238;-17
2022/07/12 05:50:42;;;;;;;4.30;0.80;;;;;;;;;;5051268;28;20354;-17
2022/07/12 05:53:24;;;;;;;5.97;0.90;;;;;;;;;;5052515;28;20222;-17
2022/07/12 05:55:51;;;;;;;8.07;1.20;;;;;;;;;;5052825;28;20226;-16
2022/07/12 05:58:20;;;;;;;6.13;1.10;;;;;;;;;;5052673;28;20636;-16
2022/07/12 06:00:47;;;;;;;2.10;1.02;;;;;;;;;;5049885;28;20693;-16
2022/07/12 06:03:15;;;;;;;2.03;0.95;;;;;;;;;;5051335;28;20260;-16
2022/07/12 06:05:42;;;;;;;4.72;1.10;;;;;;;;;;5051277;28;20288;-16
2022/07/12 06:08:10;;;;;;;3.40;1.10;;;;;;;;;;5051601;28;21050;-17
2022/07/12 06:10:37;;;;;;;2.25;1.10;;;;;;;;;;5051586;28;20777;-17
2022/07/12 06:13:04;;;;;;;2.75;1.38;;;;;;;;;;5052192;28;20712;-17
2022/07/12 06:15:33;;;;;;;1.20;1.10;;;;;;;;;;5038154;28;20285;-17
2022/07/12 06:18:01;;;;;;;4.70;1.48;;;;;;;;;;5051784;28;20333;-17
2022/07/12 06:20:28;;;;;;;1.52;1.20;;;;;;;;;;5049328;28;20230;-17
2022/07/12 06:22:56;;;;;;;5.88;1.40;;;;;;;;;;5040855;28;20336;-17
2022/07/12 06:25:23;;;;;;;1.42;1.33;;;;;;;;;;5038415;28;20248;-17
2022/07/12 06:28:10;;;;;;;3.70;1.30;;;;;;;;;;5052246;28;20298;-16
2022/07/12 06:30:39;;;;;;;1.27;1.17;;;;;;;;;;5050997;28;20234;-17
2022/07/12 06:33:07;;;;;;;1.10;1.00;;;;;;;;;;5051211;28;20405;-16
2022/07/12 06:35:34;;;;;;;1.77;1.30;;;;;;;;;;5051547;28;20222;-16
2022/07/12 06:38:02;;;;;;;2.13;1.40;;;;;;;;;;5051604;28;20313;-17
2022/07/12 06:40:29;;;;;;;1.80;1.20;;;;;;;;;;5051582;28;20230;-17
2022/07/12 06:42:56;;;;;;;1.45;1.35;;;;;;;;;;5050730;28;20236;-17
2022/07/12 06:45:24;;;;;;;1.30;1.13;;;;;;;;;;5051353;28;20241;-16
2022/07/12 06:47:53;;;;;;;1.35;1.20;;;;;;;;;;5049332;28;20230;-17
2022/07/12 06:50:20;;;;;;;2.78;1.02;;;;;;;;;;5051538;28;20736;-17
2022/07/12 06:52:47;;;;;;;2.25;1.05;;;;;;;;;;5049560;28;20245;-16
2022/07/12 06:55:16;;;;;;;0.80;0.80;;;;;;;;;;5050824;28;20763;-17
2022/07/12 06:57:43;;;;;;;1.15;0.90;;;;;;;;;;5051124;28;21037;-17
2022/07/12 07:00:11;;;;;;;2.65;1.00;;;;;;;;;;5051161;28;20257;-17
2022/07/12 07:02:38;;;;;;;5.57;1.77;;;;;;;;;;5050847;28;20233;-17
2022/07/12 07:05:08;;;;;;;4.25;0.90;;;;;;;;;;5051388;28;20233;-17
2022/07/12 07:07:35;;;;;;;2.40;0.90;;;;;;;;;;5048606;28;20226;-17
2022/07/12 07:10:02;;;;;;;9.27;0.90;;;;;;;;;;5051004;28;20248;-16
2022/07/12 07:12:30;;;;;;;2.90;0.90;;;;;;;;;;5051341;28;20277;-16
2022/07/12 07:14:57;;;;;;;1.35;0.95;;;;;;;;;;5050582;28;20760;-16
2022/07/12 07:17:25;;;;;;;2.65;0.95;;;;;;;;;;5050737;28;20226;-16
2022/07/12 07:19:52;;;;;;;2.88;0.73;;;;;;;;;;5051487;28;20230;-16
2022/07/12 07:22:21;;;;;;;1.30;1.20;;;;;;;;;;5050954;28;20249;-17
2022/07/12 07:24:48;;;;;;;6.38;1.10;;;;;;;;;;5050972;28;20246;-17
2022/07/12 07:27:15;;;;;;;1.02;0.93;;;;;;;;;;5050659;28;20230;-17
2022/07/12 07:32:24;;;;;;;2.55;1.10;;;;;;;;;;5015737;28;20242;-17
2022/07/12 07:34:52;;;;;;;6.00;0.88;;;;;;;;;;5048029;28;20280;-17
2022/07/12 07:37:21;;;;;;;1.40;0.90;;;;;;;;;;5050300;28;20248;-17
2022/07/12 07:39:48;;;;;;;4.32;0.98;;;;;;;;;;5051136;28;20313;-17
2022/07/12 07:42:16;;;;;;;4.45;1.20;;;;;;;;;;5051268;28;20226;-17
2022/07/12 07:44:44;;;;;;;1.30;1.20;;;;;;;;;;5038696;28;20230;-17
2022/07/12 07:47:31;;;;;;;5.30;1.20;;;;;;;;;;5051937;28;20234;-16
2022/07/12 07:49:58;;;;;;;7.90;1.10;;;;;;;;;;5051039;28;20356;-16
2022/07/12 07:52:27;;;;;;;3.50;1.00;;;;;;;;;;5050231;28;20238;-16
2022/07/12 07:54:55;;;;;;;1.30;0.90;;;;;;;;;;5050745;28;20230;-16
2022/07/12 07:57:22;;;;;;;3.13;0.85;;;;;;;;;;5049583;28;20245;-16
2022/07/12 07:59:49;;;;;;;1.10;1.00;;;;;;;;;;5050114;28;20230;-16
2022/07/12 08:02:17;;;;;;;4.47;1.20;;;;;;;;;;5050624;28;20229;-16
2022/07/12 08:04:44;;;;;;;1.30;0.90;;;;;;;;;;5050295;28;20292;-17
2022/07/12 08:07:12;;;;;;;1.63;1.00;;;;;;;;;;5050481;28;20230;-16
2022/07/12 08:10:00;;;;;;;2.75;1.30;;;;;;;;;;5036309;28;20250;-16
2022/07/12 08:12:28;;;;;;;1.80;0.80;;;;;;;;;;5037120;28;20354;-16
2022/07/12 08:14:55;;;;;;;3.10;0.80;;;;;;;;;;5050542;28;21152;-17
2022/07/12 08:17:22;;;;;;;2.20;0.80;;;;;;;;;;5051225;28;20734;-17
2022/07/12 08:19:50;;;;;;;0.70;0.70;;;;;;;;;;5050501;28;20229;-16
2022/07/12 08:22:17;;;;;;;1.20;0.70;;;;;;;;;;5050205;28;21388;-17
2022/07/12 08:24:44;;;;;;;2.22;1.17;;;;;;;;;;5051376;28;20953;-16
2022/07/12 08:27:13;;;;;;;1.73;1.42;;;;;;;;;;5051222;28;20229;-16
2022/07/12 08:29:41;;;;;;;4.07;1.13;;;;;;;;;;5050204;28;20230;-16
2022/07/12 08:32:08;;;;;;;7.05;1.35;;;;;;;;;;5049152;28;20238;-17
2022/07/12 08:34:36;;;;;;;6.53;1.80;;;;;;;;;;5050281;28;20592;-17
2022/07/12 08:37:03;;;;;;;8.70;1.50;;;;;;;;;;5050651;28;20241;-17
2022/07/12 08:39:31;;;;;;;4.07;1.30;;;;;;;;;;5050432;28;20234;-16
2022/07/12 08:41:58;;;;;;;6.57;1.33;;;;;;;;;;5049519;28;20728;-17
2022/07/12 08:44:27;;;;;;;11.88;1.70;;;;;;;;;;5050297;28;20695;-17
2022/07/12 08:46:54;;;;;;;5.40;1.38;;;;;;;;;;5050367;28;20964;-17
2022/07/12 08:49:22;;;;;;;4.70;1.40;;;;;;;;;;5050853;28;20731;-16
2022/07/12 08:51:49;;;;;;;4.07;1.20;;;;;;;;;;5050188;28;20739;-16
2022/07/12 08:54:17;;;;;;;5.63;1.75;;;;;;;;;;5049208;28;20241;-17
2022/07/12 08:56:44;;;;;;;2.65;1.10;;;;;;;;;;5032823;28;20241;-17
2022/07/12 08:59:12;;;;;;;2.42;1.20;;;;;;;;;;5039549;28;20263;-16
2022/07/12 09:01:42;;;;;;;4.10;1.10;;;;;;;;;;5050178;28;20226;-16
2022/07/12 09:04:10;;;;;;;1.63;1.08;;;;;;;;;;5049402;28;20242;-17
2022/07/12 09:06:37;;;;;;;2.35;1.13;;;;;;;;;;5050008;28;20234;-17
2022/07/12 09:09:05;;;;;;;2.75;1.00;;;;;;;;;;5050137;28;20224;-16
2022/07/12 09:11:32;;;;;;;3.05;0.95;;;;;;;;;;5049627;28;20723;-16
2022/07/12 09:14:01;;;;;;;1.42;0.93;;;;;;;;;;5050173;28;20240;-17
2022/07/12 09:16:28;;;;;;;1.70;1.30;;;;;;;;;;5051963;28;20245;-17
2022/07/12 09:19:11;;;;;;;2.65;0.80;;;;;;;;;;5039467;28;20322;-16
2022/07/12 09:21:39;;;;;;;1.23;0.82;;;;;;;;;;5052665;28;20249;-17
2022/07/12 09:24:07;;;;;;;1.05;0.95;;;;;;;;;;5053199;28;20679;-16
2022/07/12 09:26:39;;;;;;;1.50;0.77;;;;;;;;;;5052968;28;20292;-17
2022/07/12 09:29:07;;;;;;;1.27;0.80;;;;;;;;;;5053452;28;20326;-16
2022/07/12 09:36:06;;;;;;;1.45;0.98;;;;;;;;;;5053246;28;20284;-16
2022/07/12 09:37:15;;;;;;;1.10;1.00;;;;;;;;;;5046850;28;20230;-16
2022/07/12 09:39:43;;;;;;;2.55;1.15;;;;;;;;;;5053246;28;20234;-16
2022/07/12 09:42:11;;;;;;;1.02;0.88;;;;;;;;;;5052709;28;20949;-15
2022/07/12 09:44:38;;;;;;;1.08;0.80;;;;;;;;;;5053119;28;20324;-15
2022/07/12 09:47:06;;;;;;;1.05;0.90;;;;;;;;;;5052581;28;21153;-15
2022/07/12 09:49:34;;;;;;;1.52;1.00;;;;;;;;;;5032930;28;20694;-15
2022/07/12 09:52:01;;;;;;;1.40;1.00;;;;;;;;;;5043173;28;20241;-15
2022/07/12 09:54:30;;;;;;;2.92;0.90;;;;;;;;;;5052944;28;20642;-15
2022/07/12 09:56:59;;;;;;;1.55;0.77;;;;;;;;;;5038785;28;20698;-16
2022/07/12 09:59:28;;;;;;;1.88;1.05;;;;;;;;;;5052755;28;20230;-16
2022/07/12 10:01:55;;;;;;;1.40;1.20;;;;;;;;;;5052059;28;20238;-15
2022/07/12 10:04:23;;;;;;;3.17;1.30;;;;;;;;;;5052206;28;20381;-16
2022/07/12 10:06:50;;;;;;;1.92;1.10;;;;;;;;;;5052140;28;20230;-15
2022/07/12 10:09:18;;;;;;;1.13;0.90;;;;;;;;;;5051693;28;20222;-16
2022/07/12 10:11:47;;;;;;;1.48;0.80;;;;;;;;;;5052638;28;20333;-16
2022/07/12 10:14:34;;;;;;;3.15;1.10;;;;;;;;;;5050763;28;20233;-16
2022/07/12 10:17:03;;;;;;;1.25;1.10;;;;;;;;;;5052312;28;20230;-15
2022/07/12 10:19:31;;;;;;;3.00;0.90;;;;;;;;;;5053076;28;20234;-16
2022/07/12 10:21:59;;;;;;;2.58;0.80;;;;;;;;;;5052070;28;20250;-16
2022/07/12 10:24:45;;;;;;;0.70;0.70;;;;;;;;;;5052660;28;20244;-15
2022/07/12 10:27:30;;;;;;;1.50;0.80;;;;;;;;;;5052117;28;20226;-17
2022/07/12 10:30:12;;;;;;;1.77;1.00;;;;;;;;;;5052694;28;20237;-16
2022/07/12 10:32:41;;;;;;;1.25;0.77;;;;;;;;;;5050712;28;20234;-17
2022/07/12 10:35:12;;;;;;;1.33;1.00;;;;;;;;;;5052461;28;20226;-16
2022/07/12 10:37:40;;;;;;;1.35;0.82;;;;;;;;;;5046284;28;20226;-16
2022/07/12 10:40:14;;;;;;;1.08;0.70;;;;;;;;;;5045540;28;20572;-16
2022/07/12 10:42:43;;;;;;;1.05;0.82;;;;;;;;;;5049462;28;20268;-17
2022/07/12 10:45:12;;;;;;;4.50;0.98;;;;;;;;;;5051749;28;20227;-16
2022/07/12 10:47:55;;;;;;;1.17;0.80;;;;;;;;;;5049367;28;20284;-17
2022/07/12 10:50:38;;;;;;;3.25;0.80;;;;;;;;;;5052768;28;20226;-17
2022/07/12 10:53:20;;;;;;;1.42;0.70;;;;;;;;;;5051594;28;20238;-17
2022/07/12 10:56:03;;;;;;;1.67;0.90;;;;;;;;;;5041126;28;20237;-17
2022/07/12 10:58:32;;;;;;;1.40;0.80;;;;;;;;;;5052068;28;20720;-17
2022/07/12 11:00:59;;;;;;;1.38;0.90;;;;;;;;;;5051723;28;20704;-17
2022/07/12 11:03:30;;;;;;;1.98;0.90;;;;;;;;;;5051650;28;20230;-17
2022/07/12 11:06:01;;;;;;;1.17;0.90;;;;;;;;;;5049353;28;20254;-16
2022/07/12 11:08:29;;;;;;;2.08;0.85;;;;;;;;;;5049436;28;20236;-15
2022/07/12 11:10:56;;;;;;;1.52;1.20;;;;;;;;;;5051686;28;20226;-15
2022/07/12 11:13:24;;;;;;;1.27;0.88;;;;;;;;;;5051535;28;20249;-18
2022/07/12 11:15:59;;;;;;;1.40;1.25;;;;;;;;;;5051022;28;20230;-16
2022/07/12 11:18:30;;;;;;;5.13;1.40;;;;;;;;;;5050960;28;20225;-15
2022/07/12 11:20:58;;;;;;;3.17;1.02;;;;;;;;;;5037752;28;20848;-18
2022/07/12 11:23:26;;;;;;;3.33;1.20;;;;;;;;;;5052144;28;20225;-17
2022/07/12 11:25:54;;;;;;;3.17;1.60;;;;;;;;;;5051559;28;20662;-17
2022/07/12 11:28:22;;;;;;;1.85;1.55;;;;;;;;;;5051909;28;20234;-17
2022/07/12 11:30:49;;;;;;;3.15;1.45;;;;;;;;;;5051000;28;20222;-17
2022/07/12 11:33:18;;;;;;;6.68;1.63;;;;;;;;;;5051221;28;21215;-17
2022/07/12 11:35:46;;;;;;;5.43;1.50;;;;;;;;;;5047889;28;20715;-17
2022/07/12 11:38:14;;;;;;;4.07;1.55;;;;;;;;;;5050824;28;20230;-17
2022/07/12 11:40:41;;;;;;;2.63;1.38;;;;;;;;;;5051332;28;20230;-17
2022/07/12 11:43:09;;;;;;;3.17;1.50;;;;;;;;;;5049929;28;20232;-17
2022/07/12 11:45:36;;;;;;;1.73;1.60;;;;;;;;;;5048179;28;20333;-17
2022/07/12 11:48:05;;;;;;;2.42;1.55;;;;;;;;;;5050395;28;20284;-17
2022/07/12 11:50:34;;;;;;;2.40;1.80;;;;;;;;;;5051108;28;20240;-17
2022/07/12 11:53:03;;;;;;;3.85;1.20;;;;;;;;;;5050921;28;20237;-17
2022/07/12 11:55:31;;;;;;;2.13;1.40;;;;;;;;;;5051476;28;20285;-17
2022/07/12 11:58:05;;;;;;;4.05;1.50;;;;;;;;;;5038259;28;20230;-17
2022/07/12 12:00:32;;;;;;;2.08;1.50;;;;;;;;;;5042762;28;20775;-17
2022/07/12 12:03:00;;;;;;;2.40;1.45;;;;;;;;;;5051159;28;20237;-17
2022/07/12 12:05:27;;;;;;;2.17;1.65;;;;;;;;;;5051071;28;20292;-17
2022/07/12 12:07:56;;;;;;;1.70;1.48;;;;;;;;;;5050737;28;20234;-17
2022/07/12 12:10:23;;;;;;;1.60;1.50;;;;;;;;;;5050443;28;20234;-17
2022/07/12 12:12:51;;;;;;;2.42;1.23;;;;;;;;;;5041549;28;20237;-17
2022/07/12 12:15:21;;;;;;;3.28;1.40;;;;;;;;;;5046127;28;20234;-17
2022/07/12 12:17:52;;;;;;;3.15;1.38;;;;;;;;;;5051145;28;20226;-17
2022/07/12 12:20:20;;;;;;;1.40;1.30;;;;;;;;;;5051347;28;20242;-17
2022/07/12 12:22:48;;;;;;;1.48;1.35;;;;;;;;;;5042320;28;20253;-17
2022/07/12 12:25:17;;;;;;;1.48;1.33;;;;;;;;;;5030732;28;20231;-17
2022/07/12 12:27:45;;;;;;;1.35;1.10;;;;;;;;;;5037382;28;20234;-17
2022/07/12 12:30:33;;;;;;;2.35;1.30;;;;;;;;;;5050708;28;20230;-17
2022/07/12 12:33:01;;;;;;;1.75;1.38;;;;;;;;;;5049282;28;20236;-17
2022/07/12 12:35:32;;;;;;;1.73;1.30;;;;;;;;;;5050837;28;20241;-17
2022/07/12 12:38:00;;;;;;;1.67;1.20;;;;;;;;;;5050584;28;20317;-17
2022/07/12 12:40:29;;;;;;;2.83;1.20;;;;;;;;;;5037821;28;20230;-17
2022/07/12 12:43:06;;;;;;;2.25;1.17;;;;;;;;;;5050365;28;21025;-17
2022/07/12 12:45:33;;;;;;;1.25;1.10;;;;;;;;;;5050562;28;20226;-17
2022/07/12 12:48:01;;;;;;;2.20;0.93;;;;;;;;;;5050430;28;20234;-17
2022/07/12 12:50:36;;;;;;;2.25;1.00;;;;;;;;;;5053418;28;20248;-17
2022/07/12 12:53:07;;;;;;;1.70;1.13;;;;;;;;;;5050967;28;20241;-17
2022/07/12 12:55:35;;;;;;;1.42;1.00;;;;;;;;;;5049857;28;20612;-16
2022/07/12 12:58:07;;;;;;;1.73;1.20;;;;;;;;;;5046666;28;20268;-17
2022/07/12 13:00:35;;;;;;;3.75;1.20;;;;;;;;;;5049660;28;21033;-16
2022/07/12 13:03:03;;;;;;;6.80;1.40;;;;;;;;;;5048300;28;21097;-17
2022/07/12 13:05:30;;;;;;;1.13;1.02;;;;;;;;;;5050400;28;20236;-16
2022/07/12 13:07:57;;;;;;;2.38;1.30;;;;;;;;;;5050380;28;20234;-16
2022/07/12 13:10:25;;;;;;;3.35;1.00;;;;;;;;;;5049898;28;20273;-16
2022/07/12 13:12:54;;;;;;;1.58;1.13;;;;;;;;;;5050328;28;20245;-16
2022/07/12 13:15:22;;;;;;;3.42;1.20;;;;;;;;;;5048377;28;21185;-16
2022/07/12 13:17:49;;;;;;;3.50;1.13;;;;;;;;;;5048817;28;20238;-16
2022/07/12 13:20:16;;;;;;;2.33;1.02;;;;;;;;;;5048744;28;20242;-16
2022/07/12 13:22:44;;;;;;;5.20;1.38;;;;;;;;;;5048354;28;20241;-16
2022/07/12 13:25:12;;;;;;;2.00;1.08;;;;;;;;;;5048448;28;20248;-16
2022/07/12 13:27:39;;;;;;;2.78;1.50;;;;;;;;;;5053684;28;20241;-16
2022/07/12 13:30:09;;;;;;;1.73;1.02;;;;;;;;;;5053204;28;20230;-16
2022/07/12 13:32:37;;;;;;;1.60;1.45;;;;;;;;;;5053743;28;20768;-16
2022/07/12 13:35:04;;;;;;;3.65;1.20;;;;;;;;;;5053063;28;20274;-16
2022/07/12 13:37:32;;;;;;;1.40;1.20;;;;;;;;;;5053885;28;20353;-16
2022/07/12 13:40:13;;;;;;;1.20;1.10;;;;;;;;;;5053041;28;21070;-16
2022/07/12 13:42:41;;;;;;;2.17;1.02;;;;;;;;;;5053786;28;20226;-16
2022/07/12 13:45:12;;;;;;;1.65;0.90;;;;;;;;;;5053197;28;20715;-16
2022/07/12 13:47:39;;;;;;;3.10;1.13;;;;;;;;;;5052387;28;20234;-16
2022/07/12 13:50:07;;;;;;;2.28;0.80;;;;;;;;;;5052411;28;20234;-16
2022/07/12 13:52:35;;;;;;;1.25;0.90;;;;;;;;;;5052695;28;20698;-16
2022/07/12 13:55:02;;;;;;;1.98;0.73;;;;;;;;;;5038238;28;20242;-16
2022/07/12 13:57:29;;;;;;;2.90;0.90;;;;;;;;;;5044047;28;20230;-16
2022/07/12 13:59:57;;;;;;;1.55;1.27;;;;;;;;;;5048663;28;20223;-16
2022/07/12 14:02:26;;;;;;;1.40;0.93;;;;;;;;;;5052213;28;20241;-16
2022/07/12 14:04:54;;;;;;;1.02;0.80;;;;;;;;;;5039153;28;20230;-16
2022/07/12 14:07:21;;;;;;;2.22;1.02;;;;;;;;;;5053000;28;20245;-16
2022/07/12 14:09:49;;;;;;;1.13;0.80;;;;;;;;;;5040324;28;20279;-16
2022/07/12 14:12:16;;;;;;;1.90;0.90;;;;;;;;;;5045337;28;20969;-16
2022/07/12 14:17:30;;;;;;;1.00;0.80;;;;;;;;;;5046986;28;20231;-16
2022/07/12 14:19:57;;;;;;;0.90;0.90;;;;;;;;;;5044887;28;20343;-16
2022/07/12 14:22:25;;;;;;;1.48;1.10;;;;;;;;;;5051794;28;21094;-16
2022/07/12 14:24:53;;;;;;;1.85;1.20;;;;;;;;;;5053230;28;20282;-16
2022/07/12 14:27:20;;;;;;;1.38;1.02;;;;;;;;;;5049717;28;20326;-16
2022/07/12 14:29:48;;;;;;;1.48;1.00;;;;;;;;;;5032800;28;20265;-16
2022/07/12 14:32:15;;;;;;;3.85;1.30;;;;;;;;;;5050372;28;20309;-16
2022/07/12 14:34:44;;;;;;;1.85;0.80;;;;;;;;;;5044369;28;20244;-16
2022/07/12 14:37:11;;;;;;;1.48;0.95;;;;;;;;;;5031897;28;20261;-16
2022/07/12 14:39:39;;;;;;;1.00;0.88;;;;;;;;;;5052324;28;21043;-16
2022/07/12 14:42:06;;;;;;;1.92;1.10;;;;;;;;;;5040088;28;20239;-16
2022/07/12 14:44:33;;;;;;;1.20;1.05;;;;;;;;;;5035756;28;20834;-16
2022/07/12 14:47:01;;;;;;;1.25;1.10;;;;;;;;;;5052460;28;20694;-16
2022/07/12 14:49:28;;;;;;;1.77;1.10;;;;;;;;;;5052111;28;20240;-16
2022/07/12 14:51:57;;;;;;;3.30;1.10;;;;;;;;;;5052295;28;20329;-16
2022/07/12 14:54:25;;;;;;;3.00;1.30;;;;;;;;;;5051722;28;20637;-16
2022/07/12 14:56:52;;;;;;;5.50;1.20;;;;;;;;;;5048729;28;20729;-17
2022/07/12 14:59:20;;;;;;;2.05;1.13;;;;;;;;;;5051172;28;20454;-17